Time;durP1;ratioP1;P1;durP2;ratioP2;P2;SDS_P1;SDS_P2;PMS_P1;PMS_P2;Temp;Humidity;BMP_temperature;BMP_pressure;BME280_temperature;BME280_humidity;BME280_pressure;Samples;Min_cycle;Max_cycle;Signal;HPM_P1;HPM_P2
2022/05/08 00:01:16;;;;;;;5.40;3.17;;;;;;;10.00;70.75;99687.28;5046432;28;20226;-73
2022/05/08 00:03:42;;;;;;;6.00;3.70;;;;;;;9.92;71.66;99689.50;5046099;28;20211;-73
2022/05/08 00:06:11;;;;;;;5.43;3.20;;;;;;;9.89;71.55;99689.66;5046011;28;20227;-74
2022/05/08 00:08:39;;;;;;;6.93;3.80;;;;;;;9.87;71.68;99696.59;5046013;28;20211;-73
2022/05/08 00:11:06;;;;;;;5.03;3.10;;;;;;;9.84;71.63;99687.38;5045864;28;20302;-74
2022/05/08 00:13:35;;;;;;;7.23;3.40;;;;;;;9.81;71.71;99686.75;5045979;28;20227;-73
2022/05/08 00:16:02;;;;;;;4.30;3.10;;;;;;;9.80;71.70;99685.09;5045602;28;20227;-72
2022/05/08 00:18:29;;;;;;;8.13;3.43;;;;;;;9.77;71.76;99685.28;5045726;28;20715;-72
2022/05/08 00:20:56;;;;;;;5.40;3.47;;;;;;;9.69;71.84;99694.22;5046183;28;20728;-72
2022/05/08 00:23:24;;;;;;;5.50;3.10;;;;;;;9.64;72.02;99691.13;5045842;28;20204;-72
2022/05/08 00:25:51;;;;;;;6.70;3.27;;;;;;;9.64;72.06;99688.56;5045559;28;20227;-73
2022/05/08 00:28:17;;;;;;;7.17;3.37;;;;;;;9.61;72.52;99691.31;5045836;28;20610;-72
2022/05/08 00:30:44;;;;;;;5.53;3.30;;;;;;;9.61;72.50;99686.19;5045783;28;20219;-73
2022/05/08 00:33:11;;;;;;;5.83;3.40;;;;;;;9.61;72.99;99693.84;5045613;28;20239;-74
2022/05/08 00:35:38;;;;;;;6.17;3.53;;;;;;;9.60;73.07;99694.78;5045542;28;20636;-73
2022/05/08 00:38:05;;;;;;;7.27;3.30;;;;;;;9.60;72.69;99689.66;5045838;28;20200;-72
2022/05/08 00:40:35;;;;;;;5.57;3.70;;;;;;;9.59;72.17;99693.09;5045238;28;20739;-73
2022/05/08 00:43:42;;;;;;;6.37;3.17;;;;;;;9.59;71.72;99693.09;5045764;28;20290;-73
2022/05/08 00:46:10;;;;;;;6.57;3.37;;;;;;;9.48;71.85;99691.19;5045571;28;20253;-74
2022/05/08 00:48:37;;;;;;;8.57;3.33;;;;;;;9.50;72.22;99691.09;5045732;28;20211;-73
2022/05/08 00:51:08;;;;;;;4.63;3.37;;;;;;;9.48;72.05;99690.34;5045275;28;20216;-72
2022/05/08 00:53:36;;;;;;;7.97;3.17;;;;;;;9.40;72.26;99687.44;5045440;28;20663;-72
2022/05/08 00:56:06;;;;;;;5.57;3.10;;;;;;;9.25;73.04;99682.31;5045076;28;20749;-72
2022/05/08 00:58:35;;;;;;;4.70;3.13;;;;;;;9.17;72.92;99681.94;5045653;28;20207;-73
2022/05/08 01:01:02;;;;;;;5.43;3.50;;;;;;;9.12;72.91;99683.91;5045216;28;20227;-72
2022/05/08 01:03:29;;;;;;;6.17;3.37;;;;;;;9.03;73.30;99679.34;5045430;28;20211;-73
2022/05/08 01:05:57;;;;;;;7.47;3.40;;;;;;;8.94;73.76;99679.84;5047649;28;20215;-72
2022/05/08 01:08:25;;;;;;;5.00;3.60;;;;;;;8.89;73.83;99674.19;5048600;28;20210;-73
2022/05/08 01:10:53;;;;;;;7.10;3.43;;;;;;;8.78;74.11;99685.78;5048441;28;20713;-72
2022/05/08 01:13:21;;;;;;;5.10;3.40;;;;;;;8.65;74.48;99677.19;5048636;28;20231;-74
2022/05/08 01:15:49;;;;;;;4.80;3.30;;;;;;;8.50;75.02;99680.56;5048535;28;20295;-72
2022/05/08 01:18:17;;;;;;;7.53;3.70;;;;;;;8.46;75.07;99673.97;5048861;28;20210;-74
2022/05/08 01:20:46;;;;;;;7.07;3.60;;;;;;;8.45;75.13;99677.44;5048444;28;20709;-73
2022/05/08 01:23:15;;;;;;;7.57;3.77;;;;;;;8.43;75.23;99671.59;5048568;28;20195;-73
2022/05/08 01:25:51;;;;;;;6.80;3.90;;;;;;;8.37;75.59;99671.00;5048286;28;20231;-72
2022/05/08 01:28:18;;;;;;;6.87;3.63;;;;;;;8.27;76.15;99672.41;5048572;28;20258;-72
2022/05/08 01:30:47;;;;;;;5.57;3.60;;;;;;;8.11;76.58;99669.81;5048369;28;20227;-73
2022/05/08 01:33:14;;;;;;;6.70;3.80;;;;;;;7.96;77.08;99665.53;5048565;28;20231;-73
2022/05/08 01:35:42;;;;;;;6.73;3.83;;;;;;;7.83;77.76;99665.38;5048265;28;20216;-72
2022/05/08 01:38:10;;;;;;;7.63;3.80;;;;;;;7.66;78.40;99657.78;5048222;28;20681;-73
2022/05/08 01:40:39;;;;;;;5.87;3.83;;;;;;;7.60;78.80;99658.91;5048338;28;20230;-74
2022/05/08 01:43:07;;;;;;;7.97;4.07;;;;;;;7.60;78.69;99658.09;5048290;28;20207;-72
2022/05/08 01:45:34;;;;;;;4.57;3.20;;;;;;;7.58;78.75;99658.16;5048097;28;20219;-72
2022/05/08 01:50:45;;;;;;;7.13;3.40;;;;;;;7.56;78.34;99657.41;5048367;28;20225;-73
2022/05/08 01:53:12;;;;;;;8.57;3.57;;;;;;;7.56;78.28;99656.59;5048074;28;20235;-73
2022/05/08 01:55:41;;;;;;;7.60;3.70;;;;;;;7.52;78.29;99665.28;5048384;28;20358;-74
2022/05/08 01:58:07;;;;;;;4.77;3.40;;;;;;;7.54;78.30;99658.41;5048119;28;20845;-73
2022/05/08 02:00:35;;;;;;;7.10;3.50;;;;;;;7.57;78.10;99659.06;5047974;28;20227;-73
2022/05/08 02:03:03;;;;;;;7.53;3.67;;;;;;;7.63;77.45;99663.03;5047960;28;20650;-73
2022/05/08 02:05:31;;;;;;;5.80;3.60;;;;;;;7.65;76.88;99671.38;5047992;27;20250;-72
2022/05/08 02:07:59;;;;;;;7.90;3.70;;;;;;;7.64;77.08;99669.75;5047969;28;20203;-72
2022/05/08 02:10:26;;;;;;;6.17;3.73;;;;;;;7.67;76.85;99674.69;5047738;28;20219;-74
2022/05/08 02:12:55;;;;;;;5.80;3.33;;;;;;;7.69;76.84;99672.88;5048035;28;20625;-73
2022/05/08 02:15:22;;;;;;;7.37;3.73;;;;;;;7.68;77.22;99674.63;5047562;28;20223;-72
2022/05/08 02:17:48;;;;;;;8.20;3.80;;;;;;;7.65;77.78;99682.41;5046740;28;20200;-73
2022/05/08 02:20:15;;;;;;;5.47;3.50;;;;;;;7.62;77.80;99679.16;5047694;28;20246;-72
2022/05/08 02:22:42;;;;;;;7.43;3.80;;;;;;;7.53;78.14;99677.09;5047980;28;20618;-73
2022/05/08 02:25:10;;;;;;;5.77;3.60;;;;;;;7.49;78.42;99682.34;5047527;28;20239;-74
2022/05/08 02:27:38;;;;;;;6.83;3.80;;;;;;;7.56;78.22;99676.94;5047522;28;20218;-73
2022/05/08 02:30:08;;;;;;;6.93;4.33;;;;;;;7.57;78.04;99674.34;5047319;28;20199;-71
2022/05/08 02:32:35;;;;;;;6.70;3.87;;;;;;;7.53;78.02;99672.00;5047533;28;20330;-74
2022/05/08 02:35:03;;;;;;;9.13;4.40;;;;;;;7.46;78.16;99677.41;5047381;28;20219;-74
2022/05/08 02:37:30;;;;;;;5.97;3.90;;;;;;;7.37;78.46;99675.31;5047344;28;20622;-73
2022/05/08 02:39:57;;;;;;;5.27;3.77;;;;;;;7.33;78.63;99676.38;5047213;28;20206;-73
2022/05/08 02:42:23;;;;;;;6.23;3.83;;;;;;;7.28;79.11;99677.50;5047420;28;20620;-72
2022/05/08 02:44:51;;;;;;;6.00;4.10;;;;;;;7.22;79.31;99673.53;5047159;28;20309;-73
2022/05/08 02:47:19;;;;;;;9.00;4.17;;;;;;;7.21;79.14;99676.97;5047322;28;20267;-73
2022/05/08 02:49:46;;;;;;;8.23;4.40;;;;;;;7.21;79.64;99679.50;5047102;28;20203;-72
2022/05/08 02:52:13;;;;;;;6.93;4.23;;;;;;;7.24;79.28;99676.81;5047063;28;20223;-73
2022/05/08 02:54:40;;;;;;;8.20;4.13;;;;;;;7.19;79.57;99676.25;5046962;28;20230;-73
2022/05/08 02:59:51;;;;;;;7.67;4.47;;;;;;;7.13;79.66;99674.00;5046895;28;20239;-73
2022/05/08 03:02:20;;;;;;;6.20;4.10;;;;;;;7.14;79.81;99685.81;5046935;28;20678;-72
2022/05/08 03:04:46;;;;;;;7.67;4.77;;;;;;;7.09;79.81;99682.66;5046839;28;20256;-72
2022/05/08 03:07:14;;;;;;;8.10;4.43;;;;;;;7.10;79.78;99691.91;5046954;28;20223;-73
2022/05/08 03:09:40;;;;;;;8.37;4.37;;;;;;;7.06;79.70;99688.72;5046932;28;20199;-72
2022/05/08 03:12:09;;;;;;;7.43;4.50;;;;;;;7.07;79.87;99685.28;5047057;28;20223;-72
2022/05/08 03:14:36;;;;;;;7.67;4.70;;;;;;;7.01;80.45;99685.56;5046879;28;20249;-72
2022/05/08 03:17:03;;;;;;;8.77;4.73;;;;;;;7.00;80.31;99689.81;5046786;27;20227;-73
2022/05/08 03:19:31;;;;;;;9.23;5.07;;;;;;;7.01;79.94;99690.63;5046693;28;20199;-72
2022/05/08 03:21:58;;;;;;;9.30;5.13;;;;;;;7.01;79.56;99688.09;5046456;28;20748;-73
2022/05/08 03:24:28;;;;;;;11.07;5.20;;;;;;;7.05;79.47;99698.97;5046657;28;20236;-73
2022/05/08 03:26:55;;;;;;;8.43;4.87;;;;;;;7.05;79.46;99698.97;5046642;28;20314;-72
2022/05/08 03:29:21;;;;;;;10.00;5.10;;;;;;;7.12;79.45;99697.75;5046544;28;20252;-72
2022/05/08 03:31:48;;;;;;;8.33;5.03;;;;;;;7.09;79.37;99697.91;5046388;28;20226;-73
2022/05/08 03:34:15;;;;;;;9.90;5.53;;;;;;;7.09;79.16;99703.00;5046468;28;20483;-72
2022/05/08 03:36:44;;;;;;;8.23;4.90;;;;;;;7.08;79.42;99706.44;5046208;28;20732;-73
2022/05/08 03:39:12;;;;;;;9.13;5.00;;;;;;;7.00;79.57;99710.16;5046334;28;20223;-73
2022/05/08 03:41:38;;;;;;;9.73;4.70;;;;;;;7.05;79.48;99711.69;5046317;28;20306;-73
2022/05/08 03:44:06;;;;;;;8.03;4.90;;;;;;;7.07;79.14;99715.81;5046375;28;20689;-73
2022/05/08 03:46:33;;;;;;;9.03;4.60;;;;;;;7.07;79.26;99717.50;5046383;28;20427;-73
2022/05/08 03:48:59;;;;;;;6.90;4.43;;;;;;;7.00;80.09;99720.31;5046228;28;20259;-72
2022/05/08 03:51:26;;;;;;;11.47;4.33;;;;;;;6.99;81.01;99718.69;5046108;28;20744;-72
2022/05/08 03:53:55;;;;;;;6.87;4.07;;;;;;;6.90;81.55;99719.13;5046096;28;20293;-72
2022/05/08 03:56:22;;;;;;;6.03;4.10;;;;;;;6.81;82.64;99729.72;5046328;28;20659;-74
2022/05/08 03:58:48;;;;;;;7.07;4.07;;;;;;;6.70;83.60;99721.78;5046373;28;20276;-74
2022/05/08 04:01:15;;;;;;;8.03;4.10;;;;;;;6.60;84.44;99726.44;5045891;27;20222;-72
2022/05/08 04:03:42;;;;;;;6.43;4.30;;;;;;;6.56;85.37;99735.09;5045272;28;20203;-72
2022/05/08 04:06:09;;;;;;;10.40;4.23;;;;;;;6.45;86.07;99732.22;5046376;28;20219;-73
2022/05/08 04:08:36;;;;;;;7.50;4.17;;;;;;;6.38;86.85;99741.00;5045960;28;20609;-72
2022/05/08 04:11:04;;;;;;;6.10;4.03;;;;;;;6.33;87.29;99744.56;5045720;28;20485;-72
2022/05/08 04:13:31;;;;;;;6.83;3.80;;;;;;;6.26;87.46;99744.91;5045822;28;20257;-73
2022/05/08 04:16:17;;;;;;;9.13;4.17;;;;;;;6.29;87.60;99749.88;5045735;28;20219;-72
2022/05/08 04:18:44;;;;;;;6.53;4.10;;;;;;;6.34;86.82;99755.53;5046200;28;20204;-73
2022/05/08 04:21:10;;;;;;;6.23;4.13;;;;;;;6.45;86.36;99748.28;5046006;28;20223;-72
2022/05/08 04:26:23;;;;;;;10.23;4.40;;;;;;;6.65;85.99;99741.47;5097932;27;20607;-72
2022/05/08 04:28:50;;;;;;;7.83;3.90;;;;;;;6.76;86.00;99754.53;5091019;27;20195;-72
2022/05/08 04:31:17;;;;;;;7.20;4.10;;;;;;;6.97;85.51;99760.34;5099434;27;20207;-72
2022/05/08 04:33:44;;;;;;;9.10;4.20;;;;;;;7.15;85.40;99763.72;5098794;27;20235;-72
2022/05/08 04:36:11;;;;;;;7.33;3.97;;;;;;;7.26;85.34;99767.41;5091156;27;20226;-72
2022/05/08 04:38:38;;;;;;;7.13;3.80;;;;;;;7.48;84.69;99762.13;5098142;27;20239;-75
2022/05/08 04:41:05;;;;;;;6.33;4.07;;;;;;;7.60;83.37;99764.97;5099713;27;20276;-75
2022/05/08 04:43:33;;;;;;;6.33;4.00;;;;;;;7.78;82.68;99764.06;5091201;27;20207;-75
2022/05/08 04:46:00;;;;;;;5.80;3.87;;;;;;;7.98;81.98;99760.50;5096003;27;20246;-75
2022/05/08 04:48:27;;;;;;;7.83;3.63;;;;;;;8.28;81.60;99765.75;5101360;27;20203;-75
2022/05/08 04:50:54;;;;;;;8.60;4.63;;;;;;;8.45;80.99;99766.63;5089285;27;20733;-76
2022/05/08 04:53:21;;;;;;;13.57;5.73;;;;;;;8.62;80.47;99766.56;5095303;27;20227;-75
2022/05/08 04:55:48;;;;;;;10.20;4.93;;;;;;;8.86;79.80;99769.50;5057161;27;20223;-74
2022/05/08 04:58:14;;;;;;;93.10;10.87;;;;;;;9.15;78.44;99767.91;5043771;28;20203;-75
2022/05/08 05:00:43;;;;;;;16.73;5.23;;;;;;;9.45;77.39;99764.56;5056675;27;20243;-74
2022/05/08 05:03:10;;;;;;;98.77;9.87;;;;;;;9.71;75.64;99753.66;5150025;27;20687;-77
2022/05/08 05:05:37;;;;;;;6.43;3.93;;;;;;;9.81;73.83;99763.38;5149900;27;20219;-75
2022/05/08 05:08:05;;;;;;;7.50;3.93;;;;;;;9.87;74.02;99757.91;5150466;27;20207;-74
2022/05/08 05:10:32;;;;;;;8.87;3.60;;;;;;;10.06;72.51;99762.72;5149914;27;20207;-76
2022/05/08 05:12:59;;;;;;;13.90;4.53;;;;;;;10.35;73.71;99761.03;5149935;27;20666;-77
2022/05/08 05:15:27;;;;;;;14.87;4.40;;;;;;;10.53;72.03;99762.47;5149654;27;20785;-72
2022/05/08 05:17:58;;;;;;;7.10;3.80;;;;;;;10.78;71.35;99766.06;5149603;27;20196;-74
2022/05/08 05:20:24;;;;;;;6.13;3.90;;;;;;;10.87;71.03;99770.59;5149888;27;20276;-72
2022/05/08 05:22:51;;;;;;;7.50;3.67;;;;;;;10.98;68.78;99768.19;5150093;27;20576;-73
2022/05/08 05:25:18;;;;;;;7.80;3.70;;;;;;;11.20;67.99;99769.38;5150782;27;20284;-72
2022/05/08 05:27:45;;;;;;;5.00;3.33;;;;;;;11.32;67.78;99771.19;5149815;27;20666;-74
2022/05/08 05:30:14;;;;;;;5.43;3.40;;;;;;;11.68;67.26;99772.25;5149576;27;20224;-73
2022/05/08 05:32:41;;;;;;;5.03;3.60;;;;;;;11.94;65.93;99763.69;5149523;27;20213;-74
2022/05/08 05:35:10;;;;;;;5.53;3.80;;;;;;;12.23;64.76;99764.28;5149556;27;20624;-74
2022/05/08 05:37:36;;;;;;;4.90;3.57;;;;;;;12.46;63.58;99774.72;5149765;27;20200;-74
2022/05/08 05:40:04;;;;;;;7.10;3.70;;;;;;;12.79;63.82;99771.53;5149298;27;20196;-74
2022/05/08 05:42:32;;;;;;;8.63;3.80;;;;;;;12.92;62.76;99766.38;5088857;27;20218;-79
2022/05/08 05:44:59;;;;;;;7.23;3.63;;;;;;;12.98;62.22;99768.50;5044699;28;20199;-74
2022/05/08 05:50:12;;;;;;;6.77;3.90;;;;;;;13.29;63.01;99772.28;5045486;28;20517;-83
2022/05/08 05:52:39;;;;;;;4.50;3.43;;;;;;;13.60;59.27;99772.59;5045938;28;20195;-80
2022/05/08 05:55:06;;;;;;;8.93;3.77;;;;;;;13.82;58.81;99772.66;5046420;28;20227;-88
2022/05/08 05:57:33;;;;;;;13.53;3.97;;;;;;;13.98;57.71;99772.31;5047676;27;20286;-86
2022/05/08 06:00:00;;;;;;;5.07;3.47;;;;;;;13.99;56.15;99768.81;5048148;28;20199;-81
2022/05/08 06:02:27;;;;;;;4.93;3.60;;;;;;;14.29;55.89;99779.47;5047950;28;20220;-86
2022/05/08 06:04:54;;;;;;;7.50;3.37;;;;;;;14.06;56.98;99774.31;5047979;28;20310;-79
2022/05/08 06:07:22;;;;;;;10.47;6.13;;;;;;;14.42;58.45;99780.13;5047956;28;20886;-85
2022/05/08 06:09:49;;;;;;;8.83;4.30;;;;;;;14.36;54.60;99776.28;5047828;28;20204;-83
2022/05/08 06:12:17;;;;;;;6.00;3.67;;;;;;;14.61;55.51;99777.81;5047077;28;20217;-86
2022/05/08 06:14:46;;;;;;;7.70;3.73;;;;;;;14.77;56.15;99781.75;5047633;28;20269;-80
2022/05/08 06:17:13;;;;;;;4.83;3.13;;;;;;;15.08;53.21;99780.97;5047892;28;20488;-80
2022/05/08 06:19:40;;;;;;;5.30;3.57;;;;;;;15.04;52.86;99784.75;5046353;28;20246;-80
2022/05/08 06:22:07;;;;;;;6.70;3.50;;;;;;;15.06;53.77;99785.41;5047414;28;20223;-86
2022/05/08 06:24:38;;;;;;;4.93;3.57;;;;;;;15.11;52.83;99783.31;5047731;28;20208;-86
2022/05/08 06:27:05;;;;;;;4.53;3.13;;;;;;;15.44;51.17;99783.28;5047188;28;20254;-80
2022/05/08 06:29:32;;;;;;;6.00;3.33;;;;;;;15.26;52.83;99775.28;5047446;28;20240;-80
2022/05/08 06:31:59;;;;;;;7.03;3.73;;;;;;;15.43;52.04;99774.72;5047321;28;20216;-80
2022/05/08 06:34:27;;;;;;;5.87;3.07;;;;;;;15.80;50.95;99779.47;5047516;28;20235;-80
2022/05/08 06:36:54;;;;;;;6.50;3.67;;;;;;;15.90;49.11;99789.84;5047627;28;20226;-80
2022/05/08 06:39:21;;;;;;;10.67;3.63;;;;;;;15.77;49.95;99784.91;5047402;28;20199;-81
2022/05/08 06:41:49;;;;;;;6.20;3.03;;;;;;;16.06;49.19;99778.13;5047267;28;20274;-82
2022/05/08 06:44:16;;;;;;;6.20;3.10;;;;;;;15.94;48.24;99791.22;5047595;28;20210;-83
2022/05/08 06:46:43;;;;;;;6.70;3.20;;;;;;;15.62;49.39;99789.53;5047279;28;20236;-80
2022/05/08 06:49:09;;;;;;;6.10;2.77;;;;;;;16.35;47.61;99790.31;5047363;28;20688;-82
2022/05/08 06:51:36;;;;;;;3.33;2.63;;;;;;;16.35;47.35;99794.66;5047167;28;20219;-82
2022/05/08 06:54:03;;;;;;;5.37;3.10;;;;;;;16.70;46.68;99786.50;5046979;28;20228;-82
2022/05/08 06:56:35;;;;;;;8.07;3.40;;;;;;;17.10;45.15;99788.19;5047159;28;20227;-86
2022/05/08 07:01:48;;;;;;;6.67;3.07;;;;;;;17.28;45.45;99799.50;5047234;28;20222;-85
2022/05/08 07:04:15;;;;;;;5.47;3.30;;;;;;;17.21;44.62;99795.81;5046429;28;20647;-81
2022/05/08 07:06:42;;;;;;;5.93;3.20;;;;;;;17.42;45.28;99806.84;5046780;28;20836;-82
2022/05/08 07:09:09;;;;;;;4.57;3.00;;;;;;;16.77;46.24;99800.50;5046957;28;20381;-82
2022/05/08 07:11:37;;;;;;;4.53;2.90;;;;;;;17.06;45.61;99800.56;5046983;28;20612;-85
2022/05/08 07:14:05;;;;;;;7.53;3.30;;;;;;;17.19;45.24;99800.28;5047081;28;20234;-82
2022/05/08 07:16:32;;;;;;;5.50;3.40;;;;;;;17.69;45.18;99802.72;5046793;28;20227;-82
2022/05/08 07:18:59;;;;;;;6.30;3.90;;;;;;;17.62;43.77;99802.44;5047044;28;20192;-86
2022/05/08 07:21:27;;;;;;;6.77;3.00;;;;;;;18.03;44.07;99803.03;5046923;28;20624;-81
2022/05/08 07:23:55;;;;;;;6.23;3.17;;;;;;;18.21;43.64;99800.56;5047160;28;20585;-91
2022/05/08 07:26:23;;;;;;;5.27;2.73;;;;;;;17.73;43.17;99801.47;5046824;28;20331;-89
2022/05/08 07:28:50;;;;;;;6.00;3.00;;;;;;;17.90;45.51;99799.16;5046927;28;20210;-86
2022/05/08 07:31:18;;;;;;;4.27;2.90;;;;;;;17.88;42.46;99799.28;5047175;28;20606;-89
2022/05/08 07:33:46;;;;;;;5.63;3.03;;;;;;;18.18;42.38;99798.25;5046897;28;20207;-87
2022/05/08 07:36:24;;;;;;;5.13;3.00;;;;;;;18.21;43.31;99792.78;5046735;27;20242;-86
2022/05/08 07:38:52;;;;;;;5.23;3.03;;;;;;;18.08;43.51;99808.63;5046186;28;20207;-88
2022/05/08 07:41:20;;;;;;;6.13;3.27;;;;;;;18.32;43.58;99797.78;5046463;28;20219;-88
2022/05/08 07:43:50;;;;;;;4.87;3.00;;;;;;;18.20;42.72;99806.66;5046508;28;20203;-87
2022/05/08 07:46:18;;;;;;;5.73;3.47;;;;;;;18.97;40.59;99794.31;5046278;28;20418;-83
2022/05/08 07:48:45;;;;;;;6.70;3.23;;;;;;;19.02;42.45;99799.84;5046330;28;20199;-88
2022/05/08 07:51:12;;;;;;;7.23;3.50;;;;;;;19.21;40.67;99807.47;5046203;28;20223;-84
2022/05/08 07:53:41;;;;;;;5.27;3.10;;;;;;;19.25;40.48;99807.19;5045745;28;20214;-85
2022/05/08 07:56:10;;;;;;;5.93;3.13;;;;;;;19.10;42.27;99799.91;5046360;28;20686;-87
2022/05/08 07:58:37;;;;;;;6.07;3.00;;;;;;;19.49;40.75;99802.22;5046403;27;20223;-86
2022/05/08 08:01:05;;;;;;;5.83;3.10;;;;;;;20.05;42.26;99798.38;5045936;28;20255;-84
2022/05/08 08:03:37;;;;;;;6.77;3.57;;;;;;;20.55;39.55;99805.44;5045503;27;20217;-87
2022/05/08 08:06:04;;;;;;;7.63;3.00;;;;;;;20.33;37.36;99798.16;5045837;28;20234;-90
2022/05/08 08:08:31;;;;;;;8.57;2.80;;;;;;;20.12;38.49;99807.16;5046443;28;20289;-86
2022/05/08 08:11:03;;;;;;;3.87;2.80;;;;;;;20.74;37.39;99806.97;5045895;27;20720;-90
2022/05/08 08:13:31;;;;;;;4.43;2.50;;;;;;;20.91;37.58;99812.97;5045924;28;20539;-91
2022/05/08 08:15:59;;;;;;;6.03;2.70;;;;;;;20.38;37.39;99805.50;5045223;28;20249;-89
2022/05/08 08:18:35;;;;;;;4.40;2.50;;;;;;;20.48;37.84;99807.00;5046001;28;20213;-87
2022/05/08 08:21:07;;;;;;;18.17;3.20;;;;;;;20.52;36.42;99810.09;5046354;28;20309;-91
2022/05/08 08:23:34;;;;;;;3.63;2.60;;;;;;;20.85;40.36;99818.00;5046367;28;20491;-89
2022/05/08 08:26:01;;;;;;;5.67;2.73;;;;;;;20.73;36.69;99825.28;5045954;28;20223;-86
2022/05/08 08:28:31;;;;;;;4.50;2.80;;;;;;;20.97;35.95;99812.38;5045711;28;20612;-87
2022/05/08 08:30:58;;;;;;;5.87;2.93;;;;;;;21.29;36.97;99813.34;5046170;28;20277;-90
2022/05/08 08:33:26;;;;;;;5.43;2.83;;;;;;;21.48;35.71;99815.66;5045852;28;20209;-87
2022/05/08 08:35:54;;;;;;;3.03;2.43;;;;;;;21.62;36.26;99816.00;5045638;28;20685;-90
2022/05/08 08:38:31;;;;;;;6.07;2.73;;;;;;;21.48;36.91;99810.47;5045527;28;20200;-87
2022/05/08 08:41:03;;;;;;;9.67;3.63;;;;;;;21.19;35.39;99812.72;5045808;28;20259;-86
2022/05/08 08:47:42;;;;;;;6.20;2.73;;;;;;;21.20;35.96;99811.72;5045726;28;20206;-87
2022/05/08 08:49:16;;;;;;;4.43;2.87;;;;;;;22.24;36.45;99808.38;5046077;28;20230;-86
2022/05/08 08:51:44;;;;;;;5.83;2.87;;;;;;;21.76;35.87;99812.72;5045607;28;20226;-89
2022/05/08 08:54:13;;;;;;;5.10;3.30;;;;;;;22.08;35.36;99806.63;5045808;28;20237;-90
2022/05/08 08:56:40;;;;;;;3.73;2.40;;;;;;;22.34;32.42;99808.16;5045900;28;20315;-92
2022/05/08 08:59:06;;;;;;;8.30;3.30;;;;;;;22.01;33.30;99810.06;5045764;28;20206;-89
2022/05/08 09:01:34;;;;;;;7.00;3.10;;;;;;;22.46;34.42;99798.22;5045367;28;20226;-87
2022/05/08 09:04:01;;;;;;;7.03;4.00;;;;;;;22.20;35.82;99803.69;5045634;28;20278;-91
2022/05/08 09:06:38;;;;;;;5.93;2.60;;;;;;;22.98;33.25;99808.00;5045603;28;20245;-86
2022/05/08 09:09:22;;;;;;;5.00;2.80;;;;;;;22.41;33.58;99795.28;5045611;28;20198;-86
2022/05/08 09:11:49;;;;;;;5.77;2.50;;;;;;;22.15;32.64;99809.34;5045606;28;20258;-85
2022/05/08 09:14:28;;;;;;;4.53;2.50;;;;;;;22.31;31.71;99804.13;5045507;28;20217;-88
2022/05/08 09:16:56;;;;;;;3.40;2.13;;;;;;;22.34;32.22;99795.13;5045348;28;20222;-89
2022/05/08 09:19:34;;;;;;;5.37;2.60;;;;;;;22.53;32.08;99793.94;5045296;28;20221;-90
2022/05/08 09:22:03;;;;;;;6.10;2.60;;;;;;;23.01;33.36;99792.84;5045317;28;20687;-85
2022/05/08 09:24:31;;;;;;;4.50;2.50;;;;;;;23.31;33.09;99799.97;5045323;28;20215;-89
2022/05/08 09:27:18;;;;;;;4.53;2.10;;;;;;;22.89;31.64;99785.56;5047339;28;20222;-85
2022/05/08 09:29:46;;;;;;;4.27;2.10;;;;;;;23.11;31.00;99790.00;5061114;28;20195;-85
2022/05/08 09:32:35;;;;;;;4.07;2.37;;;;;;;23.63;31.39;99791.84;5048707;28;20236;-89
2022/05/08 09:35:03;;;;;;;4.83;2.30;;;;;;;23.80;30.99;99796.94;5048425;28;20710;-86
2022/05/08 09:37:30;;;;;;;9.10;2.90;;;;;;;23.49;28.45;99800.44;5048229;28;20684;-89
2022/05/08 09:40:19;;;;;;;4.87;2.27;;;;;;;23.78;28.30;99783.25;5048446;28;20198;-88
2022/05/08 09:42:49;;;;;;;6.90;3.00;;;;;;;24.13;30.83;99786.94;5048265;28;20250;-86
2022/05/08 09:45:20;;;;;;;7.40;3.90;;;;;;;24.31;29.06;99783.94;5048368;28;20632;-90
2022/05/08 09:47:48;;;;;;;16.70;9.40;;;;;;;24.35;28.70;99787.81;5048549;28;20764;-89
2022/05/08 09:50:17;;;;;;;3.70;2.80;;;;;;;24.09;29.48;99781.25;5048617;28;20245;-91
2022/05/08 09:52:47;;;;;;;7.10;2.90;;;;;;;24.04;30.81;99783.59;5048171;28;20705;-89
2022/05/08 09:55:20;;;;;;;4.43;2.47;;;;;;;23.53;30.51;99775.59;5048309;28;20244;-92
2022/05/08 09:57:51;;;;;;;6.60;2.27;;;;;;;23.58;31.72;99775.91;5048177;28;20206;-89
2022/05/08 10:00:19;;;;;;;4.13;2.40;;;;;;;23.83;30.99;99770.47;5048301;28;20291;-90
2022/05/08 10:02:47;;;;;;;8.83;3.97;;;;;;;23.95;30.19;99771.63;5047926;28;20755;-89
2022/05/08 10:05:16;;;;;;;5.57;3.30;;;;;;;23.96;31.25;99770.63;5047858;28;20283;-86
2022/05/08 10:07:43;;;;;;;5.67;3.30;;;;;;;24.08;30.55;99757.91;5047791;28;20204;-85
2022/05/08 10:15:48;;;;;;;12.55;6.80;;;;;;;24.20;31.05;99760.88;5047969;28;20299;-89
2022/05/08 10:18:28;;;;;;;8.40;4.63;;;;;;;24.03;31.49;99755.88;5048141;28;20203;-88
2022/05/08 10:21:03;;;;;;;8.15;4.43;;;;;;;24.01;31.99;99757.84;5047828;28;20664;-88
2022/05/08 10:23:38;;;;;;;4.90;2.67;;;;;;;24.36;31.56;99748.41;5048021;28;20611;-86
2022/05/08 10:26:15;;;;;;;5.13;3.00;;;;;;;23.90;32.25;99751.25;5048123;28;20237;-91
2022/05/08 10:29:18;;;;;;;3.87;2.80;;;;;;;23.84;32.36;99756.41;5048240;28;20193;-86
2022/05/08 10:31:47;;;;;;;6.27;3.63;;;;;;;24.24;32.88;99757.72;5047962;27;20255;-86
2022/05/08 10:34:18;;;;;;;9.50;4.40;;;;;;;24.34;32.35;99752.19;5048022;27;20590;-91
2022/05/08 10:37:23;;;;;;;6.25;2.63;;;;;;;24.54;31.88;99750.66;5047639;28;20243;-91
2022/05/08 10:39:53;;;;;;;4.28;2.90;;;;;;;24.43;34.38;99745.91;5047943;28;20736;-91
2022/05/08 10:42:44;;;;;;;3.80;2.60;;;;;;;24.24;31.57;99741.25;5047779;28;20195;-91
2022/05/08 10:45:40;;;;;;;4.53;2.92;;;;;;;24.12;32.88;99738.28;5047880;28;20219;-90
2022/05/08 10:48:12;;;;;;;8.93;3.80;;;;;;;24.72;35.07;99744.19;5048065;28;20199;-85
2022/05/08 10:50:41;;;;;;;9.70;4.82;;;;;;;24.98;32.08;99738.38;5047695;28;20224;-85
2022/05/08 10:53:21;;;;;;;4.50;2.95;;;;;;;24.98;33.09;99738.38;5047411;28;20290;-91
2022/05/08 10:55:59;;;;;;;5.13;3.13;;;;;;;25.05;33.47;99734.84;5047701;28;20262;-91
2022/05/08 10:58:26;;;;;;;7.10;4.10;;;;;;;25.24;32.38;99738.63;5047342;28;20191;-91
2022/05/08 11:00:58;;;;;;;6.70;2.90;;;;;;;24.97;31.82;99732.34;5048235;28;20224;-86
2022/05/08 11:03:26;;;;;;;4.40;2.83;;;;;;;24.92;32.73;99726.88;5047258;28;20192;-89
2022/05/08 11:05:55;;;;;;;5.28;3.15;;;;;;;24.42;32.69;99718.13;5047715;27;20233;-86
2022/05/08 11:08:27;;;;;;;8.15;4.50;;;;;;;24.66;33.77;99721.41;5047287;28;20206;-89
2022/05/08 11:10:59;;;;;;;4.80;3.10;;;;;;;24.50;33.02;99720.66;5047357;28;20323;-90
2022/05/08 11:13:37;;;;;;;5.70;3.65;;;;;;;24.94;30.75;99727.50;5047281;28;20200;-90
2022/05/08 11:16:05;;;;;;;6.53;3.90;;;;;;;24.84;32.36;99716.53;5047085;28;20709;-85
2022/05/08 11:18:32;;;;;;;6.93;4.32;;;;;;;24.65;32.96;99722.41;5047270;28;20208;-89
2022/05/08 11:21:00;;;;;;;4.68;3.40;;;;;;;24.75;31.90;99715.03;5046854;28;20224;-91
2022/05/08 11:23:29;;;;;;;5.50;3.03;;;;;;;24.93;29.50;99715.41;5046936;28;20260;-84
2022/05/08 11:25:57;;;;;;;5.32;3.10;;;;;;;24.70;31.87;99715.63;5047033;28;20223;-84
2022/05/08 11:28:28;;;;;;;4.97;3.38;;;;;;;25.11;31.75;99711.53;5046926;28;20200;-85
2022/05/08 11:30:57;;;;;;;4.97;3.60;;;;;;;25.21;32.73;99714.63;5046771;28;20580;-90
2022/05/08 11:36:35;;;;;;;7.05;3.53;;;;;;;24.99;31.96;99714.66;5046922;28;20360;-84
2022/05/08 11:39:04;;;;;;;3.25;2.28;;;;;;;25.04;29.40;99716.69;5047175;27;20581;-90
2022/05/08 11:41:38;;;;;;;6.10;3.60;;;;;;;24.22;29.20;99704.03;5046922;28;20307;-90
2022/05/08 11:44:18;;;;;;;5.88;3.38;;;;;;;24.21;31.05;99705.03;5046872;28;20199;-90
2022/05/08 11:46:46;;;;;;;8.52;4.40;;;;;;;24.60;32.24;99705.44;5046623;28;20220;-90
2022/05/08 11:49:16;;;;;;;4.70;2.35;;;;;;;24.70;30.25;99699.13;5046531;28;20372;-90
2022/05/08 11:51:44;;;;;;;5.63;3.17;;;;;;;24.34;30.84;99697.31;5046410;28;20231;-83
2022/05/08 11:54:25;;;;;;;3.53;2.65;;;;;;;24.60;29.79;99689.75;5046758;28;20260;-83
2022/05/08 11:57:12;;;;;;;6.55;3.03;;;;;;;24.98;31.27;99692.09;5046418;28;20322;-85
2022/05/08 11:59:39;;;;;;;6.30;3.10;;;;;;;25.13;30.36;99693.81;5046639;28;20207;-90
2022/05/08 12:02:06;;;;;;;6.03;3.83;;;;;;;25.32;28.91;99689.75;5046596;28;20216;-91
2022/05/08 12:04:35;;;;;;;5.53;2.78;;;;;;;25.33;28.60;99684.31;5046385;28;20200;-91
2022/05/08 12:07:05;;;;;;;4.50;3.15;;;;;;;24.85;29.61;99686.78;5046345;28;20226;-85
2022/05/08 12:09:34;;;;;;;5.47;2.83;;;;;;;24.20;28.19;99678.06;5046243;28;20295;-84
2022/05/08 12:12:23;;;;;;;7.43;4.38;;;;;;;24.39;29.23;99671.44;5046280;28;20222;-84